Ahtanum, Washington
Current Conditions -  °F | °C
As of 6:53 AM on Wednesday 26 Nov 2014 (Local Time) from KYKM Reporting Station
Haze Haze  
Wind Chill: 39°   Ceiling: 200
Heat Index: 39°   Visibility: 0.75mi
Dew Point: 37°   Wind: 0mph
Humidity: 93%   Direction: NA
Pressure: 30.17"   Gusts: NA
Location:  46.5979°N, 120.534°W
Report Text: KYKM 261453Z 00000KT 3/4SM R27/3500V4500FT BR OVC002 04/03 A3017 RMK AO2 SLP224 T00390028 53001
Loading
Personal Weather Stations






























Interactive Weather Map New forecast layout! Learn more

10-Day Weather Forecast

Advertisements
Track Severe Weather on mobile